createdAt,value
2022-09-16T00:01:19.362Z,72.11
2022-09-16T00:03:27.097Z,71.94
2022-09-16T00:05:30.161Z,72.33
2022-09-16T00:07:33.056Z,72.22
2022-09-16T00:09:38.207Z,72.31
2022-09-16T00:11:44.038Z,72.18
2022-09-16T00:13:47.224Z,72.29
2022-09-16T00:15:51.022Z,72.56
2022-09-16T00:17:54.845Z,72.65
2022-09-16T00:19:59.211Z,72.32
2022-09-16T00:22:01.886Z,72.85
2022-09-16T00:24:07.292Z,72.64
2022-09-16T00:26:12.981Z,73.07
2022-09-16T00:28:27.754Z,72.73
2022-09-16T00:30:34.311Z,73.02
2022-09-16T00:32:45.677Z,72.65
2022-09-16T00:34:48.752Z,73.10
2022-09-16T00:37:04.866Z,72.72
2022-09-16T00:39:10.879Z,72.98
2022-09-16T00:41:21.322Z,72.67
2022-09-16T00:43:27.425Z,72.84
2022-09-16T00:45:41.725Z,72.45
2022-09-16T00:48:05.079Z,72.51
2022-09-16T00:50:13.905Z,72.81
2022-09-16T00:52:24.613Z,72.48
2022-09-16T00:54:28.722Z,72.66
2022-09-16T00:56:40.323Z,72.63
2022-09-16T01:05:50.345Z,72.92
2022-09-16T01:07:56.716Z,73.00
2022-09-16T01:12:32.134Z,72.84
2022-09-16T01:14:40.175Z,72.91
2022-09-16T01:17:11.827Z,72.71
2022-09-16T01:20:11.875Z,72.70
2022-09-16T01:22:57.209Z,72.86
2022-09-16T01:25:41.797Z,73.29
2022-09-16T01:28:25.871Z,73.22
2022-09-16T01:31:08.221Z,73.04
2022-09-16T01:33:50.701Z,73.25
2022-09-16T01:36:35.411Z,72.94
2022-09-16T01:39:12.262Z,73.08
2022-09-16T01:41:35.240Z,73.18
2022-09-16T01:44:10.940Z,72.99
2022-09-16T01:46:25.333Z,72.93
2022-09-16T01:48:56.492Z,72.61
2022-09-16T01:51:19.587Z,72.42
2022-09-16T01:53:37.928Z,72.45
2022-09-16T01:55:50.563Z,72.50
2022-09-16T01:58:02.530Z,72.14
2022-09-16T02:00:15.280Z,72.00
2022-09-16T02:02:32.373Z,71.99
2022-09-16T02:04:49.693Z,71.92
2022-09-16T02:07:09.127Z,72.14
2022-09-16T02:09:21.581Z,71.62
2022-09-16T02:11:27.370Z,72.01
2022-09-16T02:13:36.321Z,71.90
2022-09-16T02:15:42.507Z,71.82
2022-09-16T02:17:52.174Z,71.92
2022-09-16T02:20:08.341Z,71.46
2022-09-16T02:22:20.456Z,71.89
2022-09-16T02:24:28.430Z,71.89
2022-09-16T02:26:41.846Z,71.66
2022-09-16T02:28:48.966Z,71.77
2022-09-16T02:31:05.470Z,71.80
2022-09-16T02:37:53.411Z,71.77
2022-09-16T02:40:06.077Z,72.07
2022-09-16T02:42:11.623Z,71.67
2022-09-16T02:44:18.517Z,71.59
2022-09-16T02:46:55.140Z,71.53
2022-09-16T02:49:33.528Z,71.61
2022-09-16T02:51:57.665Z,71.57
2022-09-16T02:54:33.881Z,71.58
2022-09-16T03:01:44.125Z,71.22
2022-09-16T03:03:51.974Z,71.23
2022-09-16T03:06:04.017Z,71.33
2022-09-16T03:08:08.664Z,70.79
2022-09-16T03:10:13.997Z,70.64
2022-09-16T03:13:03.600Z,71.00
2022-09-16T03:15:26.499Z,71.33
2022-09-16T03:18:15.276Z,71.25
2022-09-16T03:20:40.445Z,71.27
2022-09-16T03:22:46.249Z,70.87
2022-09-16T03:24:52.262Z,71.23
2022-09-16T03:27:09.024Z,71.29
2022-09-16T03:29:45.994Z,71.10
2022-09-16T03:31:56.061Z,70.94
2022-09-16T03:34:08.257Z,71.11
2022-09-16T03:36:16.406Z,71.24
2022-09-16T03:38:20.365Z,71.36
2022-09-16T03:40:23.967Z,71.24
2022-09-16T03:42:26.809Z,71.56
2022-09-16T03:44:39.810Z,71.58
2022-09-16T03:46:44.280Z,71.55
2022-09-16T03:48:46.796Z,71.54
2022-09-16T03:50:48.907Z,71.67
2022-09-16T03:52:50.877Z,71.67
2022-09-16T03:54:53.528Z,72.24
2022-09-16T03:56:55.839Z,72.28
2022-09-16T03:58:58.043Z,72.47
2022-09-16T04:01:00.879Z,72.46
2022-09-16T04:03:03.193Z,72.64
2022-09-16T04:05:06.005Z,72.79
2022-09-16T04:07:08.381Z,72.51
2022-09-16T04:09:12.363Z,72.55
2022-09-16T04:11:14.487Z,72.68
2022-09-16T04:13:19.245Z,72.79
2022-09-16T04:15:21.757Z,72.58
2022-09-16T04:17:24.277Z,72.89
2022-09-16T04:19:26.807Z,73.02
2022-09-16T04:21:38.001Z,72.86
2022-09-16T04:23:40.958Z,73.12
2022-09-16T04:26:01.499Z,73.23
2022-09-16T04:28:53.126Z,73.28
2022-09-16T05:25:02.084Z,75.58
2022-09-16T05:27:04.554Z,75.66
2022-09-16T05:29:11.266Z,75.70
2022-09-16T05:34:01.731Z,75.43
2022-09-16T05:36:11.744Z,75.58
2022-09-16T05:38:23.456Z,75.89
2022-09-16T05:40:36.164Z,76.15
2022-09-16T05:45:11.644Z,76.03
2022-09-16T05:47:17.976Z,76.41
2022-09-16T05:49:21.432Z,76.59
2022-09-16T05:52:03.795Z,75.83
2022-09-16T05:54:23.665Z,74.62
2022-09-16T06:00:34.864Z,70.59
2022-09-16T06:03:13.664Z,68.10
2022-09-16T06:05:21.568Z,66.60
2022-09-16T06:07:32.191Z,64.79
2022-09-16T06:09:43.849Z,62.70
2022-09-16T06:11:51.817Z,61.50
2022-09-16T06:14:01.094Z,60.71
2022-09-16T06:16:06.562Z,60.62
2022-09-16T06:18:09.239Z,60.40
2022-09-16T06:20:11.520Z,60.90
2022-09-16T06:22:14.216Z,61.68
2022-09-16T06:24:18.250Z,61.52
2022-09-16T06:26:25.041Z,61.67
2022-09-16T06:28:27.700Z,62.04
2022-09-16T06:30:31.173Z,62.40
2022-09-16T06:32:33.852Z,63.14
2022-09-16T06:34:36.415Z,63.97
2022-09-16T06:36:42.667Z,64.01
2022-09-16T06:38:48.242Z,64.44
2022-09-16T06:40:52.134Z,65.05
2022-09-16T06:43:00.300Z,65.77
2022-09-16T06:45:07.341Z,65.84
2022-09-16T06:47:13.539Z,65.69
2022-09-16T06:49:16.815Z,64.96
2022-09-16T06:51:26.879Z,63.86
2022-09-16T06:53:34.232Z,62.17
2022-09-16T06:55:36.736Z,60.48
2022-09-16T06:57:39.115Z,60.48
2022-09-16T06:59:42.068Z,59.85
2022-09-16T07:01:44.423Z,60.08
2022-09-16T07:03:50.034Z,60.03
2022-09-16T07:06:00.460Z,60.25
2022-09-16T07:08:02.864Z,60.45
2022-09-16T07:10:07.182Z,60.77
2022-09-16T07:12:09.570Z,60.78
2022-09-16T07:14:11.911Z,61.49
2022-09-16T07:16:23.793Z,61.56
2022-09-16T07:18:26.850Z,62.02
2022-09-16T07:20:28.919Z,62.67
2022-09-16T07:22:32.212Z,62.72
2022-09-16T07:24:34.730Z,62.66
2022-09-16T07:26:36.942Z,63.32
2022-09-16T07:28:41.927Z,63.41
2022-09-16T07:30:44.530Z,63.06
2022-09-16T07:32:49.625Z,62.59
2022-09-16T07:34:51.726Z,62.89
2022-09-16T07:36:54.224Z,63.04
2022-09-16T07:38:57.879Z,62.80
2022-09-16T07:41:16.412Z,62.65
2022-09-16T07:43:19.673Z,62.43
2022-09-16T07:45:22.208Z,62.50
2022-09-16T07:47:24.660Z,62.42
2022-09-16T07:49:29.402Z,62.83
2022-09-16T07:51:34.950Z,62.88
2022-09-16T07:53:38.668Z,63.05
2022-09-16T07:55:42.952Z,62.86
2022-09-16T08:00:29.516Z,63.35
2022-09-16T08:02:33.794Z,63.54
2022-09-16T08:04:36.127Z,63.78
2022-09-16T08:06:40.119Z,63.95
2022-09-16T08:08:43.067Z,63.82
2022-09-16T08:10:54.646Z,64.14
2022-09-16T08:12:56.903Z,63.93
2022-09-16T08:15:00.176Z,64.01
2022-09-16T08:17:02.503Z,63.99
2022-09-16T08:19:04.820Z,64.17
2022-09-16T08:21:20.935Z,64.15
2022-09-16T08:23:23.276Z,63.76
2022-09-16T08:25:25.562Z,64.00
2022-09-16T08:27:28.511Z,63.79
2022-09-16T08:29:30.782Z,64.08
2022-09-16T08:31:33.454Z,64.13
2022-09-16T08:33:42.890Z,64.22
2022-09-16T08:35:45.098Z,64.03
2022-09-16T08:37:50.177Z,63.27
2022-09-16T08:39:53.440Z,63.39
2022-09-16T08:42:19.883Z,63.21
2022-09-16T08:45:05.724Z,62.76
2022-09-16T08:48:08.897Z,61.62
2022-09-16T08:50:23.640Z,61.73
2022-09-16T08:52:40.209Z,61.25
2022-09-16T08:54:55.276Z,61.30
2022-09-16T08:57:04.331Z,61.10
2022-09-16T08:59:18.937Z,61.20
2022-09-16T09:01:58.107Z,61.17
2022-09-16T09:04:02.069Z,61.35
2022-09-16T09:06:28.289Z,61.67
2022-09-16T09:09:20.285Z,62.16
2022-09-16T09:11:57.412Z,61.48
2022-09-16T09:14:02.657Z,61.55
2022-09-16T09:16:27.321Z,61.32
2022-09-16T09:19:24.519Z,61.05
2022-09-16T09:21:49.667Z,60.36
2022-09-16T09:24:22.761Z,61.09
2022-09-16T09:26:43.575Z,61.50
2022-09-16T09:29:14.911Z,61.36
2022-09-16T09:31:53.174Z,60.36
2022-09-16T09:34:48.224Z,59.55
2022-09-16T09:37:19.804Z,59.59
2022-09-16T09:39:53.886Z,59.30
2022-09-16T09:42:24.724Z,59.31
2022-09-16T09:44:49.037Z,58.39
2022-09-16T09:46:59.511Z,59.04
2022-09-16T09:49:14.264Z,58.50
2022-09-16T09:52:02.427Z,58.71
2022-09-16T09:54:33.819Z,58.20
2022-09-16T09:56:42.060Z,58.25
2022-09-16T09:58:54.383Z,58.33
2022-09-16T10:00:57.065Z,59.19
2022-09-16T10:03:11.621Z,59.78
2022-09-16T10:05:39.243Z,59.74
2022-09-16T10:12:27.296Z,58.04
2022-09-16T10:20:44.375Z,55.77
2022-09-16T10:23:17.577Z,55.16
2022-09-16T10:32:26.413Z,52.89
2022-09-16T10:34:38.139Z,53.34
2022-09-16T10:37:17.214Z,52.33
2022-09-16T10:39:55.370Z,52.05
2022-09-16T10:41:59.378Z,51.71
2022-09-16T10:44:24.588Z,51.52
2022-09-16T10:46:31.016Z,51.47
2022-09-16T10:48:49.599Z,50.19
2022-09-16T10:50:59.801Z,49.30
2022-09-16T10:53:39.091Z,49.56
2022-09-16T10:55:57.352Z,49.84
2022-09-16T10:58:18.681Z,50.53
2022-09-16T11:00:30.955Z,51.46
2022-09-16T11:03:10.000Z,52.13
2022-09-16T11:05:23.987Z,51.73
2022-09-16T11:08:06.729Z,52.24
2022-09-16T11:10:23.317Z,52.54
2022-09-16T11:13:01.707Z,52.64
2022-09-16T11:15:32.453Z,53.14
2022-09-16T11:29:44.259Z,51.72
2022-09-16T11:32:05.247Z,51.18
2022-09-16T11:40:27.720Z,49.11
2022-09-16T11:42:57.349Z,48.31
2022-09-16T11:45:05.508Z,48.65
2022-09-16T11:47:20.704Z,49.60
2022-09-16T11:50:14.219Z,50.93
2022-09-16T11:52:47.774Z,49.88
2022-09-16T11:55:29.684Z,50.70
2022-09-16T11:57:38.859Z,49.71
2022-09-16T11:59:52.194Z,48.78
2022-09-16T12:02:26.369Z,48.83
2022-09-16T12:04:39.970Z,48.95
2022-09-16T12:13:30.327Z,46.43
2022-09-16T12:16:04.384Z,46.16
2022-09-16T12:18:33.274Z,46.40
2022-09-16T12:20:43.070Z,47.26
2022-09-16T12:30:21.370Z,46.51
2022-09-16T12:33:18.508Z,47.07
2022-09-16T12:36:27.049Z,46.83
2022-09-16T12:38:34.301Z,46.19
2022-09-16T12:41:08.332Z,45.89
2022-09-16T12:43:45.264Z,46.60
2022-09-16T12:47:05.115Z,46.37
2022-09-16T12:49:41.348Z,46.37
2022-09-16T12:52:12.011Z,46.11
2022-09-16T12:54:45.951Z,46.44
2022-09-16T12:58:06.220Z,46.38
2022-09-16T13:00:20.112Z,46.75
2022-09-16T13:02:29.055Z,47.08
2022-09-16T13:04:40.182Z,46.66
2022-09-16T13:06:50.779Z,46.08
2022-09-16T13:08:54.434Z,46.45
2022-09-16T13:11:35.552Z,47.20
2022-09-16T13:13:34.837Z,46.28
2022-09-16T13:15:40.356Z,46.61
2022-09-16T13:17:42.572Z,46.09
2022-09-16T13:19:51.462Z,45.85
2022-09-16T13:22:25.185Z,45.94
2022-09-16T13:24:39.567Z,46.09
2022-09-16T13:26:45.004Z,45.76
2022-09-16T13:28:47.433Z,46.06
2022-09-16T13:30:49.911Z,46.31
2022-09-16T13:32:52.383Z,46.60
2022-09-16T13:35:41.507Z,45.74
2022-09-16T13:37:54.752Z,44.94
2022-09-16T13:40:09.235Z,45.12
2022-09-16T13:42:19.598Z,45.17
2022-09-16T13:44:41.371Z,44.11
2022-09-16T13:46:46.751Z,44.40
2022-09-16T13:49:07.006Z,43.92
2022-09-16T13:51:18.443Z,43.69
2022-09-16T13:53:36.568Z,42.77
2022-09-16T13:55:41.678Z,43.02
2022-09-16T13:58:00.054Z,43.79
2022-09-16T14:00:21.223Z,45.68
2022-09-16T14:03:09.058Z,46.91
2022-09-16T14:05:37.113Z,46.93
2022-09-16T14:08:04.434Z,48.43
2022-09-16T14:11:06.788Z,48.91
2022-09-16T14:13:18.700Z,49.50
2022-09-16T14:15:23.277Z,50.39
2022-09-16T14:17:51.366Z,50.77
2022-09-16T14:20:00.112Z,50.80
2022-09-16T14:22:11.170Z,51.19
2022-09-16T14:24:13.651Z,50.94
2022-09-16T14:26:27.762Z,50.62
2022-09-16T14:28:31.284Z,50.32
2022-09-16T14:30:38.157Z,50.78
2022-09-16T14:32:41.399Z,50.23
2022-09-16T14:34:43.620Z,49.70
2022-09-16T14:36:46.929Z,49.46
2022-09-16T14:39:00.697Z,48.66
2022-09-16T14:41:07.924Z,48.14
2022-09-16T14:43:20.027Z,48.37
2022-09-16T14:45:23.061Z,47.87
2022-09-16T14:47:51.191Z,46.85
2022-09-16T14:50:25.462Z,46.97
2022-09-16T14:52:31.637Z,46.52
2022-09-16T14:54:44.169Z,46.63
2022-09-16T14:57:07.448Z,46.61
2022-09-16T14:59:13.443Z,46.84
2022-09-16T15:01:21.997Z,47.45
2022-09-16T15:03:39.050Z,47.63
2022-09-16T15:05:45.956Z,48.18
2022-09-16T15:08:12.252Z,48.79
2022-09-16T15:10:25.105Z,49.25
2022-09-16T15:12:39.126Z,49.66
2022-09-16T15:14:44.217Z,49.90
2022-09-16T15:16:53.046Z,50.48
2022-09-16T15:19:03.890Z,50.21
2022-09-16T15:21:12.989Z,50.68
2022-09-16T15:23:25.594Z,50.78
2022-09-16T15:25:31.801Z,51.05
2022-09-16T15:27:33.862Z,51.36
2022-09-16T15:29:47.803Z,51.55
2022-09-16T15:31:51.426Z,51.83
2022-09-16T15:33:54.139Z,52.06
2022-09-16T15:35:56.545Z,52.25
2022-09-16T15:38:11.861Z,52.28
2022-09-16T15:40:25.770Z,52.64
2022-09-16T15:42:28.454Z,53.27
2022-09-16T15:44:36.416Z,53.30
2022-09-16T15:46:46.542Z,53.28
2022-09-16T15:48:57.702Z,53.16
2022-09-16T15:51:18.913Z,53.79
2022-09-16T15:53:30.175Z,53.89
2022-09-16T15:55:36.695Z,53.94
2022-09-16T15:57:44.111Z,54.05
2022-09-16T16:00:06.608Z,54.12
2022-09-16T16:02:56.005Z,54.10
2022-09-16T16:05:26.893Z,54.17
2022-09-16T16:07:41.484Z,54.21
2022-09-16T16:09:45.869Z,54.25
2022-09-16T16:11:51.092Z,54.31
2022-09-16T16:13:56.510Z,54.49
2022-09-16T16:16:02.483Z,54.86
2022-09-16T16:18:12.694Z,54.97
2022-09-16T16:20:22.546Z,55.07
2022-09-16T16:22:38.404Z,54.81
2022-09-16T16:24:56.673Z,54.87
2022-09-16T16:27:01.094Z,55.01
2022-09-16T16:29:03.988Z,54.92
2022-09-16T16:31:18.119Z,55.20
2022-09-16T16:33:26.407Z,55.04
2022-09-16T16:35:34.198Z,55.21
2022-09-16T16:37:46.511Z,55.42
2022-09-16T16:39:50.516Z,55.50
2022-09-16T16:41:53.495Z,55.58
2022-09-16T16:43:55.904Z,56.27
2022-09-16T16:46:00.556Z,56.07
2022-09-16T16:48:03.237Z,56.47
2022-09-16T16:50:06.075Z,56.49
2022-09-16T16:52:09.129Z,56.76
2022-09-16T16:54:12.942Z,56.92
2022-09-16T16:58:51.981Z,57.34
2022-09-16T17:00:54.717Z,57.72
2022-09-16T17:02:57.158Z,57.79
2022-09-16T17:05:03.932Z,58.19
2022-09-16T17:07:25.216Z,58.39
2022-09-16T17:09:31.999Z,58.94
2022-09-16T17:11:56.505Z,58.96
2022-09-16T17:14:07.355Z,59.43
2022-09-16T17:16:21.942Z,59.64
2022-09-16T17:27:31.127Z,61.14
2022-09-16T17:29:34.005Z,61.68
2022-09-16T17:31:37.920Z,62.01
2022-09-16T17:33:46.901Z,62.47
2022-09-16T17:36:09.240Z,63.17
2022-09-16T17:38:13.707Z,63.47
2022-09-16T17:40:21.140Z,63.15
2022-09-16T17:43:28.815Z,63.45
2022-09-16T17:45:40.207Z,63.56
2022-09-16T17:47:43.570Z,64.29
2022-09-16T17:49:46.415Z,64.43
2022-09-16T17:51:53.526Z,64.67
2022-09-16T17:53:58.336Z,64.74
2022-09-16T17:56:14.417Z,64.94
2022-09-16T17:59:07.296Z,65.55
2022-09-16T18:01:24.529Z,65.81
2022-09-16T18:03:28.726Z,65.83
2022-09-16T18:05:35.765Z,65.71
2022-09-16T18:07:46.513Z,66.32
2022-09-16T18:09:50.343Z,66.36
2022-09-16T18:11:53.396Z,66.06
2022-09-16T18:14:01.406Z,66.33
2022-09-16T18:16:37.192Z,66.52
2022-09-16T18:21:44.237Z,66.38
2022-09-16T18:24:17.858Z,66.35
2022-09-16T18:26:37.244Z,66.87
2022-09-16T18:29:08.714Z,66.69
2022-09-16T18:31:14.145Z,66.89
2022-09-16T18:33:27.955Z,66.82
2022-09-16T18:35:34.666Z,66.97
2022-09-16T18:37:38.275Z,67.27
2022-09-16T18:40:08.377Z,67.55
2022-09-16T18:42:11.750Z,67.46
2022-09-16T18:44:21.339Z,67.68
2022-09-16T18:46:32.332Z,67.30
2022-09-16T18:48:38.702Z,67.30
2022-09-16T18:50:43.924Z,67.72
2022-09-16T18:57:30.341Z,68.13
2022-09-16T18:59:39.111Z,68.39
2022-09-16T19:04:46.706Z,68.79
2022-09-16T19:06:56.779Z,68.61
2022-09-16T19:09:06.066Z,68.36
2022-09-16T19:11:22.074Z,69.10
2022-09-16T19:13:29.483Z,69.79
2022-09-16T19:15:39.684Z,69.96
2022-09-16T19:17:56.979Z,69.92
2022-09-16T19:20:00.963Z,69.12
2022-09-16T19:22:09.863Z,69.25
2022-09-16T19:24:24.283Z,69.32
2022-09-16T19:29:15.861Z,68.15
2022-09-16T19:31:26.141Z,68.48
2022-09-16T19:34:30.333Z,68.52
2022-09-16T19:36:37.276Z,68.22
2022-09-16T19:39:13.211Z,68.56
2022-09-16T19:41:20.652Z,68.32
2022-09-16T19:43:34.736Z,68.80
2022-09-16T19:45:55.610Z,68.63
2022-09-16T19:50:56.662Z,68.79
2022-09-16T19:53:21.483Z,68.47
2022-09-16T19:55:25.457Z,69.03
2022-09-16T19:57:28.446Z,68.92
2022-09-16T20:00:01.947Z,68.88
2022-09-16T20:05:46.119Z,69.73
2022-09-16T20:07:52.484Z,69.54
2022-09-16T20:09:59.698Z,69.56
2022-09-16T20:12:33.998Z,69.33
2022-09-16T20:14:38.213Z,69.30
2022-09-16T20:16:43.979Z,69.80
2022-09-16T20:19:14.355Z,69.76
2022-09-16T20:21:36.502Z,69.86
2022-09-16T20:26:30.656Z,69.71
2022-09-16T20:30:49.440Z,68.78
2022-09-16T20:33:18.740Z,68.85
2022-09-16T20:35:26.873Z,68.55
2022-09-16T20:45:50.899Z,69.15
2022-09-16T20:48:05.609Z,68.87
2022-09-16T20:50:12.029Z,69.06
2022-09-16T20:52:43.617Z,68.86
2022-09-16T20:54:53.228Z,69.36
2022-09-16T20:59:40.582Z,68.60
2022-09-16T21:01:47.119Z,68.53
2022-09-16T21:04:43.093Z,68.37
2022-09-16T21:06:46.461Z,68.45
2022-09-16T21:08:55.133Z,68.47
2022-09-16T21:10:57.776Z,68.40
2022-09-16T21:13:02.786Z,68.45
2022-09-16T21:15:09.541Z,68.31
2022-09-16T21:17:23.033Z,68.63
2022-09-16T21:19:48.325Z,68.80
2022-09-16T21:22:59.545Z,69.42
2022-09-16T21:29:35.158Z,69.77
2022-09-16T21:34:55.593Z,70.13
2022-09-16T21:41:01.773Z,70.03
2022-09-16T21:43:18.638Z,69.64
2022-09-16T21:47:53.553Z,69.82
2022-09-16T21:49:57.792Z,70.00
2022-09-16T21:52:59.672Z,70.15
2022-09-16T21:58:04.596Z,70.23
2022-09-16T22:00:17.843Z,70.72
2022-09-16T22:02:46.318Z,70.76
2022-09-16T22:04:51.459Z,70.93
2022-09-16T22:07:21.760Z,71.07
2022-09-16T22:09:29.517Z,71.19
2022-09-16T22:11:36.485Z,71.18
2022-09-16T22:13:43.812Z,71.20
2022-09-16T22:16:06.420Z,71.27
2022-09-16T22:18:12.533Z,71.44
2022-09-16T22:20:15.029Z,71.45
2022-09-16T22:22:19.666Z,71.41
2022-09-16T22:24:22.541Z,71.53
2022-09-16T22:26:32.708Z,71.45
2022-09-16T22:28:36.157Z,71.48
2022-09-16T22:30:40.768Z,71.34
2022-09-16T22:32:52.549Z,71.47
2022-09-16T22:34:55.168Z,71.57
2022-09-16T22:36:58.117Z,71.64
2022-09-16T22:39:18.102Z,71.22
2022-09-16T22:41:28.994Z,71.21
2022-09-16T22:43:45.196Z,71.41
2022-09-16T22:45:50.807Z,71.34
2022-09-16T22:47:53.531Z,71.74
2022-09-16T22:50:01.394Z,71.64
2022-09-16T22:52:07.027Z,71.74
2022-09-16T22:54:14.532Z,71.64
2022-09-16T22:56:25.567Z,71.98
2022-09-16T22:58:29.592Z,71.52
2022-09-16T23:00:32.173Z,71.88
2022-09-16T23:02:35.026Z,71.62
2022-09-16T23:04:37.559Z,72.14
2022-09-16T23:06:40.197Z,71.73
2022-09-16T23:08:45.048Z,71.88
2022-09-16T23:10:47.713Z,71.48
2022-09-16T23:12:50.996Z,71.67
2022-09-16T23:14:53.878Z,71.47
2022-09-16T23:16:56.453Z,71.75
2022-09-16T23:19:04.140Z,71.77
2022-09-16T23:21:10.882Z,71.59
2022-09-16T23:23:13.499Z,71.43
2022-09-16T23:25:16.134Z,71.24
2022-09-16T23:27:18.847Z,70.89
2022-09-16T23:29:21.881Z,70.91
2022-09-16T23:31:34.282Z,70.72
2022-09-16T23:33:40.251Z,70.57
2022-09-16T23:35:49.821Z,70.46
2022-09-16T23:38:02.222Z,70.90
2022-09-16T23:40:06.052Z,70.56
2022-09-16T23:42:08.647Z,70.24
2022-09-16T23:44:14.437Z,70.12
2022-09-16T23:46:23.531Z,70.15
2022-09-16T23:48:26.910Z,70.30
2022-09-16T23:50:32.058Z,70.22
2022-09-16T23:52:34.926Z,70.65
2022-09-16T23:54:41.813Z,70.51
2022-09-16T23:56:58.204Z,70.60
2022-09-16T23:59:07.599Z,70.40
